createdAt,value
2024-01-25T00:00:22.810Z,11.90
2024-01-25T00:02:54.757Z,11.90
2024-01-25T00:05:28.027Z,11.90
2024-01-25T00:08:00.106Z,11.90
2024-01-25T00:10:32.483Z,11.90
2024-01-25T00:15:38.378Z,11.90
2024-01-25T00:18:10.847Z,11.80
2024-01-25T00:20:43.870Z,11.80
2024-01-25T00:23:17.006Z,11.70
2024-01-25T00:25:49.423Z,11.80
2024-01-25T00:28:21.878Z,11.70
2024-01-25T00:30:54.197Z,11.80
2024-01-25T00:33:27.311Z,11.90
2024-01-25T00:35:59.850Z,11.90
2024-01-25T00:38:33.160Z,11.90
2024-01-25T00:41:09.905Z,11.90
2024-01-25T00:43:43.103Z,11.80
2024-01-25T00:46:15.849Z,11.80
2024-01-25T00:48:49.200Z,11.80
2024-01-25T00:51:26.374Z,11.80
2024-01-25T00:53:59.495Z,11.80
2024-01-25T00:56:32.114Z,11.80
2024-01-25T00:59:05.309Z,11.80
2024-01-25T01:01:37.768Z,11.80
2024-01-25T01:04:11.124Z,11.80
2024-01-25T01:06:43.765Z,11.70
2024-01-25T01:09:16.903Z,11.80
2024-01-25T01:11:48.943Z,11.80
2024-01-25T01:16:54.483Z,11.70
2024-01-25T01:19:27.436Z,11.60
2024-01-25T01:24:33.114Z,11.60
2024-01-25T01:27:05.223Z,11.50
2024-01-25T01:29:39.262Z,11.50
2024-01-25T01:32:11.513Z,11.50
2024-01-25T01:34:44.841Z,11.40
2024-01-25T01:37:17.178Z,11.40
2024-01-25T01:39:50.555Z,11.40
2024-01-25T01:42:24.226Z,11.40
2024-01-25T01:44:57.322Z,11.40
2024-01-25T01:47:30.328Z,11.40
2024-01-25T01:50:03.775Z,11.40
2024-01-25T01:57:43.643Z,11.30
2024-01-25T02:00:18.220Z,11.30
2024-01-25T02:02:50.225Z,11.30
2024-01-25T02:05:23.133Z,11.20
2024-01-25T02:07:55.485Z,11.20
2024-01-25T02:10:28.345Z,11.10
2024-01-25T02:13:00.758Z,11.10
2024-01-25T02:15:33.215Z,11.00
2024-01-25T02:18:06.198Z,11.00
2024-01-25T02:20:38.993Z,11.00
2024-01-25T02:23:10.934Z,11.00
2024-01-25T02:25:43.987Z,11.00
2024-01-25T02:28:16.882Z,11.00
2024-01-25T02:30:49.350Z,10.90
2024-01-25T02:33:21.992Z,10.90
2024-01-25T02:35:54.527Z,11.00
2024-01-25T02:38:27.015Z,11.00
2024-01-25T02:40:59.746Z,11.00
2024-01-25T02:43:31.665Z,11.10
2024-01-25T02:46:04.985Z,11.10
2024-01-25T02:48:37.159Z,11.00
2024-01-25T02:51:10.202Z,11.00
2024-01-25T02:53:42.562Z,10.90
2024-01-25T02:56:16.297Z,10.90
2024-01-25T02:58:48.241Z,11.00
2024-01-25T03:01:21.108Z,10.90
2024-01-25T03:03:53.165Z,10.80
2024-01-25T03:06:25.651Z,10.90
2024-01-25T03:08:58.222Z,10.90
2024-01-25T03:11:30.741Z,10.80
2024-01-25T03:14:02.651Z,10.80
2024-01-25T03:16:35.455Z,10.80
2024-01-25T03:19:10.770Z,10.80
2024-01-25T03:21:43.183Z,10.80
2024-01-25T03:24:40.496Z,10.80
2024-01-25T03:27:14.888Z,10.80
2024-01-25T03:29:47.243Z,10.80
2024-01-25T03:32:19.839Z,10.80
2024-01-25T03:34:51.898Z,10.80
2024-01-25T03:37:25.209Z,10.80
2024-01-25T03:39:58.027Z,10.80
2024-01-25T03:42:30.403Z,10.80
2024-01-25T03:45:03.721Z,10.80
2024-01-25T03:47:35.690Z,10.70
2024-01-25T03:50:09.147Z,10.70
2024-01-25T03:52:41.591Z,10.70
2024-01-25T03:55:14.054Z,10.60
2024-01-25T03:57:46.471Z,10.50
2024-01-25T04:00:19.667Z,10.50
2024-01-25T04:02:52.314Z,10.50
2024-01-25T04:05:24.518Z,10.40
2024-01-25T04:07:57.491Z,10.40
2024-01-25T04:10:29.499Z,10.30
2024-01-25T04:13:03.275Z,10.20
2024-01-25T04:15:35.858Z,10.20
2024-01-25T04:18:08.052Z,10.40
2024-01-25T04:20:43.208Z,10.50
2024-01-25T04:25:50.468Z,10.00
2024-01-25T04:30:55.670Z,9.90
2024-01-25T04:33:28.092Z,9.90
2024-01-25T04:36:01.179Z,9.90
2024-01-25T04:38:33.339Z,9.90
2024-01-25T04:41:07.005Z,9.80
2024-01-25T04:43:39.522Z,9.70
2024-01-25T04:46:11.523Z,9.70
2024-01-25T04:48:44.510Z,9.70
2024-01-25T04:51:19.035Z,9.70
2024-01-25T04:53:51.387Z,9.70
2024-01-25T04:56:24.264Z,9.60
2024-01-25T04:58:56.298Z,9.60
2024-01-25T05:01:29.235Z,9.60
2024-01-25T05:04:01.868Z,9.60
2024-01-25T05:06:34.765Z,9.50
2024-01-25T05:09:09.648Z,9.60
2024-01-25T05:12:05.189Z,9.50
2024-01-25T05:14:37.123Z,9.60
2024-01-25T05:17:10.031Z,9.60
2024-01-25T05:19:42.151Z,9.60
2024-01-25T05:22:15.142Z,9.60
2024-01-25T05:24:48.202Z,9.60
2024-01-25T05:29:53.663Z,9.60
2024-01-25T05:32:25.578Z,9.70
2024-01-25T05:34:58.609Z,9.60
2024-01-25T05:37:31.367Z,9.70
2024-01-25T05:40:04.465Z,9.70
2024-01-25T05:42:37.217Z,9.70
2024-01-25T05:45:10.640Z,9.70
2024-01-25T05:47:43.707Z,9.60
2024-01-25T05:50:16.549Z,9.70
2024-01-25T05:52:48.557Z,9.70
2024-01-25T05:55:22.744Z,9.70
2024-01-25T05:57:55.343Z,9.70
2024-01-25T06:00:30.011Z,9.70
2024-01-25T06:03:01.970Z,9.60
2024-01-25T06:05:35.082Z,9.60
2024-01-25T06:08:07.498Z,9.60
2024-01-25T06:10:41.265Z,9.40
2024-01-25T06:13:13.344Z,9.50
2024-01-25T06:15:47.993Z,9.50
2024-01-25T06:18:24.783Z,9.40
2024-01-25T06:20:57.502Z,9.40
2024-01-25T06:23:29.425Z,9.30
2024-01-25T06:26:02.643Z,9.40
2024-01-25T06:28:34.539Z,9.40
2024-01-25T06:31:07.285Z,9.30
2024-01-25T06:33:39.314Z,9.30
2024-01-25T06:36:13.195Z,9.30
2024-01-25T06:41:20.517Z,9.30
2024-01-25T06:43:52.453Z,9.10
2024-01-25T06:46:25.463Z,9.30
2024-01-25T06:48:58.202Z,9.40
2024-01-25T06:51:30.993Z,9.50
2024-01-25T06:56:36.293Z,9.40
2024-01-25T06:59:09.048Z,9.50
2024-01-25T07:01:42.006Z,9.50
2024-01-25T07:04:14.392Z,9.50
2024-01-25T07:06:47.694Z,9.50
2024-01-25T07:09:20.388Z,9.60
2024-01-25T07:11:53.219Z,9.60
2024-01-25T07:14:25.143Z,9.70
2024-01-25T07:17:00.657Z,9.70
2024-01-25T07:19:33.996Z,9.60
2024-01-25T07:22:06.521Z,9.50
2024-01-25T07:24:38.968Z,9.50
2024-01-25T07:27:11.687Z,9.50
2024-01-25T07:29:46.904Z,9.50
2024-01-25T07:32:21.473Z,9.60
2024-01-25T07:34:54.832Z,9.60
2024-01-25T07:37:27.435Z,9.50
2024-01-25T07:39:59.480Z,9.50
2024-01-25T07:42:32.359Z,9.50
2024-01-25T07:45:04.963Z,9.60
2024-01-25T07:47:37.727Z,9.60
2024-01-25T07:50:10.303Z,9.60
2024-01-25T07:52:43.121Z,9.50
2024-01-25T07:55:15.143Z,9.60
2024-01-25T07:57:48.058Z,9.70
2024-01-25T08:00:20.319Z,9.70
2024-01-25T08:05:33.582Z,9.70
2024-01-25T08:08:10.556Z,9.70
2024-01-25T08:10:42.766Z,9.80
2024-01-25T08:13:15.873Z,9.80
2024-01-25T08:15:48.026Z,9.70
2024-01-25T08:18:21.027Z,9.60
2024-01-25T08:20:53.318Z,9.60
2024-01-25T08:23:26.190Z,9.70
2024-01-25T08:25:58.102Z,9.70
2024-01-25T08:31:03.831Z,9.90
2024-01-25T08:33:37.085Z,9.90
2024-01-25T08:36:09.739Z,10.50
2024-01-25T08:38:41.744Z,10.30
2024-01-25T08:41:16.765Z,10.20
2024-01-25T08:43:50.586Z,10.30
2024-01-25T08:46:23.461Z,10.20
2024-01-25T08:48:56.390Z,10.20
2024-01-25T08:51:28.856Z,10.10
2024-01-25T08:54:00.777Z,10.10
2024-01-25T08:56:33.541Z,10.10
2024-01-25T08:59:05.436Z,10.10
2024-01-25T09:01:37.976Z,10.20
2024-01-25T09:04:10.187Z,10.30
2024-01-25T09:06:43.158Z,10.40
2024-01-25T09:09:15.689Z,10.50
2024-01-25T09:11:48.465Z,10.50
2024-01-25T09:14:23.298Z,10.60
2024-01-25T09:16:55.671Z,10.60
2024-01-25T09:19:28.188Z,10.60
2024-01-25T09:22:05.840Z,10.70
2024-01-25T09:24:40.962Z,10.60
2024-01-25T09:27:14.792Z,10.60
2024-01-25T09:32:21.894Z,10.70
2024-01-25T09:34:55.943Z,10.70
2024-01-25T09:37:28.622Z,10.60
2024-01-25T09:40:01.985Z,10.60
2024-01-25T09:45:11.845Z,10.60
2024-01-25T09:47:45.598Z,10.60
2024-01-25T09:50:18.599Z,10.70
2024-01-25T09:53:01.284Z,10.60
2024-01-25T09:55:38.129Z,10.60
2024-01-25T09:58:11.031Z,10.70
2024-01-25T10:03:16.939Z,10.60
2024-01-25T10:05:49.880Z,10.60
2024-01-25T10:08:25.529Z,10.70
2024-01-25T10:10:57.569Z,10.80
2024-01-25T10:13:30.278Z,10.80
2024-01-25T10:16:03.583Z,10.80
2024-01-25T10:18:36.199Z,10.90
2024-01-25T10:21:08.618Z,11.10
2024-01-25T10:23:42.870Z,11.10
2024-01-25T10:26:15.566Z,11.10
2024-01-25T10:28:59.131Z,11.20
2024-01-25T10:31:40.241Z,11.40
2024-01-25T10:34:16.182Z,11.40
2024-01-25T10:36:48.773Z,11.30
2024-01-25T10:39:23.411Z,11.20
2024-01-25T10:41:56.568Z,11.10
2024-01-25T10:44:29.366Z,11.10
2024-01-25T10:47:02.694Z,11.10
2024-01-25T10:49:36.844Z,11.10
2024-01-25T10:52:10.358Z,11.10
2024-01-25T10:59:49.013Z,11.00
2024-01-25T11:04:57.779Z,11.30
2024-01-25T11:10:23.418Z,11.40
2024-01-25T11:13:01.605Z,11.40
2024-01-25T11:15:36.235Z,11.30
2024-01-25T11:18:09.920Z,11.30
2024-01-25T11:20:42.763Z,11.30
2024-01-25T11:23:17.607Z,11.40
2024-01-25T11:28:22.097Z,11.30
2024-01-25T11:30:56.237Z,11.20
2024-01-25T11:33:28.661Z,11.30
2024-01-25T11:36:00.924Z,11.20
2024-01-25T11:41:05.346Z,11.40
2024-01-25T11:43:37.796Z,11.40
2024-01-25T11:48:52.904Z,11.40
2024-01-25T11:52:09.752Z,11.30
2024-01-25T11:57:14.659Z,11.30
2024-01-25T12:06:49.079Z,11.30
2024-01-25T12:09:21.173Z,11.30
2024-01-25T12:22:07.517Z,11.50
2024-01-25T12:24:47.053Z,11.60
2024-01-25T12:27:27.309Z,11.60
2024-01-25T12:32:32.233Z,11.70
2024-01-25T12:37:37.328Z,11.60
2024-01-25T12:40:09.996Z,11.70
2024-01-25T12:47:47.574Z,11.80
2024-01-25T12:52:52.511Z,11.80
2024-01-25T12:58:01.127Z,11.80
2024-01-25T13:00:34.479Z,11.70
2024-01-25T13:05:40.679Z,11.80
2024-01-25T13:08:12.800Z,11.80
2024-01-25T13:13:17.433Z,11.90
2024-01-25T13:20:54.795Z,11.90
2024-01-25T13:25:59.243Z,11.90
2024-01-25T13:28:31.279Z,12.00
2024-01-25T13:36:12.010Z,12.20
2024-01-25T13:38:44.114Z,12.30
2024-01-25T13:41:16.127Z,12.20
2024-01-25T13:54:00.119Z,12.20
2024-01-25T13:56:32.167Z,12.20
2024-01-25T13:59:04.149Z,12.20
2024-01-25T14:01:38.277Z,12.00
2024-01-25T14:14:22.097Z,12.10
2024-01-25T14:19:27.171Z,12.10
2024-01-25T14:24:58.506Z,11.90
2024-01-25T14:27:31.379Z,11.90
2024-01-25T14:30:05.193Z,11.90
2024-01-25T14:35:10.763Z,11.90
2024-01-25T14:40:24.757Z,11.90
2024-01-25T14:43:07.783Z,12.00
2024-01-25T14:45:39.791Z,12.00
2024-01-25T14:48:12.781Z,11.90
2024-01-25T14:55:52.590Z,11.90
2024-01-25T14:58:24.660Z,11.90
2024-01-25T15:00:56.859Z,11.90
2024-01-25T15:03:29.031Z,11.80
2024-01-25T15:06:01.453Z,11.80
2024-01-25T15:08:33.428Z,11.80
2024-01-25T15:11:06.023Z,11.70
2024-01-25T15:13:38.321Z,11.70
2024-01-25T15:16:10.576Z,11.70
2024-01-25T15:18:42.735Z,11.70
2024-01-25T15:21:14.825Z,11.70
2024-01-25T15:23:52.390Z,11.70
2024-01-25T15:26:27.599Z,11.70
2024-01-25T15:29:00.044Z,11.70
2024-01-25T15:31:33.521Z,11.60
2024-01-25T15:36:45.470Z,11.50
2024-01-25T15:41:53.901Z,11.50
2024-01-25T15:46:58.542Z,11.50
2024-01-25T15:54:36.836Z,11.50
2024-01-25T15:57:09.624Z,11.50
2024-01-25T15:59:43.453Z,11.60
2024-01-25T16:02:15.390Z,11.60
2024-01-25T16:04:48.270Z,11.60
2024-01-25T16:09:53.393Z,11.50
2024-01-25T16:12:25.424Z,11.50
2024-01-25T16:14:59.773Z,11.50
2024-01-25T16:30:20.492Z,11.40
2024-01-25T16:40:31.709Z,11.50
2024-01-25T16:43:04.047Z,11.50
2024-01-25T16:53:14.595Z,11.50
2024-01-25T16:55:47.474Z,11.50
2024-01-25T17:03:27.246Z,11.40
2024-01-25T17:06:00.038Z,11.50
2024-01-25T17:08:32.191Z,11.40
2024-01-25T17:13:37.328Z,11.30
2024-01-25T17:18:42.434Z,11.30
2024-01-25T17:21:16.024Z,11.40
2024-01-25T17:23:58.951Z,11.40
2024-01-25T17:26:31.685Z,11.30
2024-01-25T17:34:10.395Z,11.30
2024-01-25T17:41:53.143Z,11.40
2024-01-25T17:44:25.121Z,11.40
2024-01-25T17:46:57.469Z,11.40
2024-01-25T17:49:29.592Z,11.50
2024-01-25T17:52:02.836Z,11.40
2024-01-25T17:54:34.826Z,11.40
2024-01-25T17:57:07.687Z,11.40
2024-01-25T17:59:39.605Z,11.40
2024-01-25T18:02:12.212Z,11.50
2024-01-25T18:04:44.159Z,11.40
2024-01-25T18:07:18.747Z,11.30
2024-01-25T18:09:51.643Z,11.30
2024-01-25T18:12:24.710Z,11.40
2024-01-25T18:20:05.771Z,11.50
2024-01-25T18:22:39.525Z,11.50
2024-01-25T18:25:11.534Z,11.50
2024-01-25T18:30:17.807Z,11.50
2024-01-25T18:37:56.283Z,11.60
2024-01-25T18:43:00.966Z,11.60
2024-01-25T18:45:32.945Z,11.60
2024-01-25T18:48:06.258Z,11.60
2024-01-25T18:50:38.334Z,11.60
2024-01-25T18:53:11.037Z,11.70
2024-01-25T18:55:43.341Z,11.90
2024-01-25T18:58:16.622Z,11.90
2024-01-25T19:00:49.494Z,11.70
2024-01-25T19:03:25.266Z,11.70
2024-01-25T19:05:59.209Z,11.70
2024-01-25T19:08:31.922Z,11.60
2024-01-25T19:11:04.062Z,11.70
2024-01-25T19:18:42.830Z,11.80
2024-01-25T19:23:48.311Z,11.60
2024-01-25T19:26:20.342Z,11.50
2024-01-25T19:28:53.418Z,11.60
2024-01-25T19:34:00.126Z,11.60
2024-01-25T19:39:05.935Z,11.70
2024-01-25T19:41:37.899Z,11.70
2024-01-25T19:44:10.531Z,11.60
2024-01-25T19:46:42.614Z,11.70
2024-01-25T19:49:15.351Z,11.60
2024-01-25T19:51:47.493Z,11.70
2024-01-25T19:56:52.571Z,11.80
2024-01-25T19:59:25.901Z,11.80
2024-01-25T20:01:58.216Z,11.90
2024-01-25T20:04:33.670Z,11.90
2024-01-25T20:07:06.254Z,11.90
2024-01-25T20:09:39.005Z,11.80
2024-01-25T20:14:43.820Z,11.70
2024-01-25T20:17:18.678Z,11.60
2024-01-25T20:22:24.056Z,11.60
2024-01-25T20:27:30.249Z,11.60
2024-01-25T20:30:03.147Z,11.70
2024-01-25T20:32:35.189Z,11.70
2024-01-25T20:37:40.390Z,11.70
2024-01-25T20:40:13.175Z,11.60
2024-01-25T20:42:45.332Z,11.70
2024-01-25T20:47:55.589Z,11.70
2024-01-25T20:50:36.923Z,11.70
2024-01-25T20:53:10.997Z,11.70
2024-01-25T20:55:43.636Z,11.70
2024-01-25T20:58:15.584Z,11.70
2024-01-25T21:00:48.707Z,11.80
2024-01-25T21:03:21.174Z,11.70
2024-01-25T21:08:26.640Z,11.70
2024-01-25T21:11:00.191Z,11.70
2024-01-25T21:13:39.549Z,11.70
2024-01-25T21:18:45.048Z,11.80
2024-01-25T21:21:17.765Z,11.80
2024-01-25T21:23:49.675Z,11.80
2024-01-25T21:26:22.623Z,11.70
2024-01-25T21:31:27.645Z,11.70
2024-01-25T21:36:37.816Z,11.60
2024-01-25T21:39:09.829Z,11.60
2024-01-25T21:41:42.577Z,11.50
2024-01-25T21:44:14.755Z,11.50
2024-01-25T21:46:47.422Z,11.50
2024-01-25T21:49:20.338Z,11.40
2024-01-25T21:56:58.830Z,11.40
2024-01-25T22:02:04.582Z,11.40
2024-01-25T22:17:21.256Z,11.20
2024-01-25T22:19:54.260Z,11.30
2024-01-25T22:25:00.511Z,11.20
2024-01-25T22:32:39.191Z,11.10
2024-01-25T22:35:11.260Z,11.10
2024-01-25T22:37:44.010Z,11.10
2024-01-25T22:50:29.281Z,11.00
2024-01-25T22:53:01.888Z,11.10
2024-01-25T22:55:33.808Z,11.00
2024-01-25T22:58:06.913Z,11.00
2024-01-25T23:00:40.439Z,11.00
2024-01-25T23:03:13.802Z,11.00
2024-01-25T23:05:46.189Z,11.00
2024-01-25T23:08:18.998Z,11.00
2024-01-25T23:10:51.226Z,11.00
2024-01-25T23:13:24.199Z,11.00
2024-01-25T23:15:56.299Z,11.00
2024-01-25T23:18:29.018Z,11.00
2024-01-25T23:21:01.077Z,11.00
2024-01-25T23:23:33.387Z,11.00
2024-01-25T23:26:05.303Z,11.10
2024-01-25T23:28:41.634Z,11.10
2024-01-25T23:31:17.118Z,11.10
2024-01-25T23:33:49.931Z,11.10
2024-01-25T23:36:21.947Z,11.20
2024-01-25T23:38:54.695Z,11.10
2024-01-25T23:41:26.677Z,11.20
2024-01-25T23:43:59.444Z,11.20
2024-01-25T23:46:31.372Z,11.20
2024-01-25T23:49:06.103Z,11.20
2024-01-25T23:51:42.233Z,11.20
2024-01-25T23:54:15.309Z,11.10
2024-01-25T23:56:47.785Z,11.10
